Time,TemperatureF,DewpointF,PressureIn,WindDirection,WindDirectionDegrees,WindSpeedMPH,WindSpeedGustMPH,Humidity,HourlyPrecipIn,Conditions,Clouds,dailyrainin,SoftwareType,DateUTC
2013-02-20 00:06:00,25.5,21.9,29.98,North,360,0.0,0.0,86,0.00,,,0.00,Wunderground v.1.15,2013-02-20 08:06:00,
2013-02-20 00:12:00,25.4,21.8,29.98,North,360,0.0,0.0,86,0.00,,,0.00,Wunderground v.1.15,2013-02-20 08:12:00,
2013-02-20 00:18:00,25.4,21.8,29.99,North,360,0.0,0.0,86,0.00,,,0.00,Wunderground v.1.15,2013-02-20 08:18:00,
2013-02-20 00:24:00,25.1,21.2,29.99,North,360,0.0,0.0,85,0.00,,,0.00,Wunderground v.1.15,2013-02-20 08:24:00,
2013-02-20 00:30:00,24.6,21.0,29.99,North,360,0.0,0.0,86,0.00,,,0.00,Wunderground v.1.15,2013-02-20 08:30:00,
2013-02-20 00:36:00,24.2,20.9,29.99,North,360,0.0,1.0,87,0.00,,,0.00,Wunderground v.1.15,2013-02-20 08:36:00,
2013-02-20 00:42:00,24.0,21.0,29.99,North,360,0.0,0.0,88,0.00,,,0.00,Wunderground v.1.15,2013-02-20 08:42:00,
2013-02-20 00:48:00,24.1,21.1,29.99,North,360,0.0,1.0,88,0.00,,,0.00,Wunderground v.1.15,2013-02-20 08:48:00,
2013-02-20 00:54:00,24.2,21.2,30.00,North,360,1.0,1.0,88,0.00,,,0.00,Wunderground v.1.15,2013-02-20 08:54:00,
2013-02-20 01:00:00,24.1,21.1,30.00,North,360,0.0,0.0,88,0.00,,,0.00,Wunderground v.1.15,2013-02-20 09:00:00,
2013-02-20 01:06:00,24.1,21.1,30.00,North,360,0.0,1.0,88,0.00,,,0.00,Wunderground v.1.15,2013-02-20 09:06:00,
2013-02-20 01:12:00,23.8,20.8,30.00,North,360,0.0,1.0,88,0.00,,,0.00,Wunderground v.1.15,2013-02-20 09:12:00,
2013-02-20 01:18:00,23.5,20.7,30.00,North,360,1.0,2.0,89,0.00,,,0.00,Wunderground v.1.15,2013-02-20 09:18:00,
2013-02-20 01:24:00,23.3,20.5,30.00,North,360,0.0,0.0,89,0.00,,,0.00,Wunderground v.1.15,2013-02-20 09:24:00,
2013-02-20 01:30:00,23.2,20.7,30.00,North,360,0.0,0.0,90,0.00,,,0.00,Wunderground v.1.15,2013-02-20 09:30:00,
2013-02-20 01:36:00,23.0,20.2,30.01,North,360,0.0,0.0,89,0.00,,,0.00,Wunderground v.1.15,2013-02-20 09:36:00,
2013-02-20 01:42:00,22.9,20.4,30.01,North,360,0.0,0.0,90,0.00,,,0.00,Wunderground v.1.15,2013-02-20 09:42:00,
2013-02-20 01:48:00,22.9,20.1,30.01,North,360,0.0,0.0,89,0.00,,,0.00,Wunderground v.1.15,2013-02-20 09:48:00,
2013-02-20 01:54:00,22.6,19.8,30.01,North,360,0.0,0.0,89,0.00,,,0.00,Wunderground v.1.15,2013-02-20 09:54:00,
2013-02-20 02:01:00,22.5,20.0,30.01,North,360,0.0,2.0,90,0.00,,,0.00,Wunderground v.1.15,2013-02-20 10:01:00,
2013-02-20 02:08:00,22.5,20.0,30.01,North,360,1.0,2.0,90,0.00,,,0.00,Wunderground v.1.15,2013-02-20 10:08:00,
2013-02-20 02:14:00,22.4,19.9,30.01,North,360,1.0,1.0,90,0.00,,,0.00,Wunderground v.1.15,2013-02-20 10:14:00,
2013-02-20 02:19:00,22.3,19.8,30.02,North,360,0.0,2.0,90,0.00,,,0.00,Wunderground v.1.15,2013-02-20 10:19:00,
2013-02-20 02:26:00,22.0,19.5,30.02,North,360,0.0,0.0,90,0.00,,,0.00,Wunderground v.1.15,2013-02-20 10:26:00,
2013-02-20 02:32:00,21.8,19.3,30.02,North,360,0.0,0.0,90,0.00,,,0.00,Wunderground v.1.15,2013-02-20 10:32:00,
2013-02-20 02:38:00,21.7,19.2,30.01,North,360,0.0,1.0,90,0.00,,,0.00,Wunderground v.1.15,2013-02-20 10:38:00,
2013-02-20 02:43:00,21.6,19.4,30.02,North,360,1.0,1.0,91,0.00,,,0.00,Wunderground v.1.15,2013-02-20 10:43:00,
2013-02-20 02:50:00,21.7,19.5,30.02,North,360,0.0,1.0,91,0.00,,,0.00,Wunderground v.1.15,2013-02-20 10:50:00,
2013-02-20 02:56:00,21.6,19.4,30.02,North,360,1.0,1.0,91,0.00,,,0.00,Wunderground v.1.15,2013-02-20 10:56:00,
2013-02-20 03:02:00,21.6,19.4,30.02,North,360,0.0,1.0,91,0.00,,,0.00,Wunderground v.1.15,2013-02-20 11:02:00,
2013-02-20 03:08:00,21.6,19.4,30.02,North,360,0.0,1.0,91,0.00,,,0.00,Wunderground v.1.15,2013-02-20 11:08:00,
2013-02-20 03:14:00,21.5,19.3,30.02,North,360,0.0,0.0,91,0.00,,,0.00,Wunderground v.1.15,2013-02-20 11:14:00,
2013-02-20 03:20:00,21.4,18.9,30.02,North,360,0.0,0.0,90,0.00,,,0.00,Wunderground v.1.15,2013-02-20 11:20:00,
2013-02-20 03:25:00,21.3,18.8,30.02,North,360,0.0,0.0,90,0.00,,,0.00,Wunderground v.1.15,2013-02-20 11:25:00,
2013-02-20 03:32:00,21.4,18.9,30.02,North,360,1.0,3.0,90,0.00,,,0.00,Wunderground v.1.15,2013-02-20 11:32:00,
2013-02-20 03:38:00,21.6,19.1,30.02,North,360,1.0,3.0,90,0.00,,,0.00,Wunderground v.1.15,2013-02-20 11:38:00,
2013-02-20 03:44:00,21.8,19.1,30.02,North,360,1.0,3.0,89,0.00,,,0.00,Wunderground v.1.15,2013-02-20 11:44:00,
2013-02-20 03:50:00,21.9,19.2,30.03,North,360,1.0,1.0,89,0.00,,,0.00,Wunderground v.1.15,2013-02-20 11:50:00,
2013-02-20 03:56:00,22.1,19.4,30.03,North,360,0.0,1.0,89,0.00,,,0.00,Wunderground v.1.15,2013-02-20 11:56:00,
2013-02-20 04:02:00,22.2,19.5,30.03,North,360,0.0,0.0,89,0.00,,,0.00,Wunderground v.1.15,2013-02-20 12:02:00,
2013-02-20 04:08:00,22.3,19.3,30.03,North,360,1.0,1.0,88,0.00,,,0.00,Wunderground v.1.15,2013-02-20 12:08:00,
2013-02-20 04:14:00,22.5,19.5,30.03,North,360,1.0,3.0,88,0.00,,,0.00,Wunderground v.1.15,2013-02-20 12:14:00,
2013-02-20 04:20:00,22.6,19.6,30.03,North,360,1.0,2.0,88,0.00,,,0.00,Wunderground v.1.15,2013-02-20 12:20:00,
2013-02-20 04:26:00,22.6,19.6,30.03,North,360,1.0,2.0,88,0.00,,,0.00,Wunderground v.1.15,2013-02-20 12:26:00,
2013-02-20 04:31:00,22.7,19.7,30.03,North,360,1.0,1.0,88,0.00,,,0.00,Wunderground v.1.15,2013-02-20 12:31:00,
2013-02-20 04:38:00,22.9,19.9,30.04,North,360,0.0,1.0,88,0.00,,,0.00,Wunderground v.1.15,2013-02-20 12:38:00,
2013-02-20 04:44:00,23.0,20.0,30.04,North,360,0.0,0.0,88,0.00,,,0.00,Wunderground v.1.15,2013-02-20 12:44:00,
2013-02-20 04:50:00,23.1,20.1,30.04,North,360,0.0,0.0,88,0.00,,,0.00,Wunderground v.1.15,2013-02-20 12:50:00,
2013-02-20 04:55:00,23.3,20.3,30.04,North,360,0.0,1.0,88,0.00,,,0.00,Wunderground v.1.15,2013-02-20 12:55:00,
2013-02-20 05:02:00,23.5,20.2,30.04,North,360,0.0,0.0,87,0.00,,,0.00,Wunderground v.1.15,2013-02-20 13:02:00,
2013-02-20 05:08:00,23.6,20.3,30.04,North,360,0.0,1.0,87,0.00,,,0.00,Wunderground v.1.15,2013-02-20 13:08:00,
2013-02-20 05:14:00,23.6,20.0,30.04,North,360,0.0,0.0,86,0.00,,,0.00,Wunderground v.1.15,2013-02-20 13:14:00,
2013-02-20 05:20:00,23.5,19.9,30.05,North,360,0.0,1.0,86,0.00,,,0.00,Wunderground v.1.15,2013-02-20 13:20:00,
2013-02-20 05:26:00,23.6,20.0,30.05,North,360,1.0,1.0,86,0.00,,,0.00,Wunderground v.1.15,2013-02-20 13:26:00,
2013-02-20 05:32:00,23.4,19.6,30.05,North,360,0.0,1.0,85,0.00,,,0.00,Wunderground v.1.15,2013-02-20 13:32:00,
2013-02-20 05:37:00,23.3,19.7,30.05,North,360,0.0,1.0,86,0.00,,,0.00,Wunderground v.1.15,2013-02-20 13:37:00,
2013-02-20 05:44:00,23.3,19.7,30.05,North,360,0.0,0.0,86,0.00,,,0.00,Wunderground v.1.15,2013-02-20 13:44:00,
2013-02-20 05:50:00,23.2,19.6,30.05,North,360,0.0,0.0,86,0.00,,,0.00,Wunderground v.1.15,2013-02-20 13:50:00,
2013-02-20 05:56:00,23.1,19.8,30.05,North,360,0.0,0.0,87,0.00,,,0.00,Wunderground v.1.15,2013-02-20 13:56:00,
2013-02-20 06:02:00,23.0,19.7,30.05,North,360,0.0,0.0,87,0.00,,,0.00,Wunderground v.1.15,2013-02-20 14:02:00,
2013-02-20 06:08:00,22.9,19.6,30.06,North,360,0.0,0.0,87,0.00,,,0.00,Wunderground v.1.15,2013-02-20 14:08:00,
2013-02-20 06:14:00,22.8,19.5,30.06,North,360,0.0,1.0,87,0.00,,,0.00,Wunderground v.1.15,2013-02-20 14:14:00,
2013-02-20 06:20:00,22.7,19.1,30.06,North,360,1.0,2.0,86,0.00,,,0.00,Wunderground v.1.15,2013-02-20 14:20:00,
2013-02-20 06:26:00,23.0,19.7,30.06,North,360,1.0,3.0,87,0.00,,,0.00,Wunderground v.1.15,2013-02-20 14:26:00,
2013-02-20 06:32:00,23.0,19.4,30.06,North,360,1.0,1.0,86,0.00,,,0.00,Wunderground v.1.15,2013-02-20 14:32:00,
2013-02-20 06:38:00,22.9,19.3,30.06,North,360,1.0,2.0,86,0.00,,,0.00,Wunderground v.1.15,2013-02-20 14:38:00,
2013-02-20 06:44:00,22.6,19.0,30.06,North,360,1.0,1.0,86,0.00,,,0.00,Wunderground v.1.15,2013-02-20 14:44:00,
2013-02-20 06:50:00,22.3,19.0,30.07,North,360,2.0,2.0,87,0.00,,,0.00,Wunderground v.1.15,2013-02-20 14:50:00,
2013-02-20 06:56:00,22.1,18.8,30.07,North,360,1.0,2.0,87,0.00,,,0.00,Wunderground v.1.15,2013-02-20 14:56:00,
2013-02-20 07:02:00,21.8,18.5,30.07,North,360,1.0,2.0,87,0.00,,,0.00,Wunderground v.1.15,2013-02-20 15:02:00,
2013-02-20 07:08:00,21.6,18.3,30.07,North,360,2.0,2.0,87,0.00,,,0.00,Wunderground v.1.15,2013-02-20 15:08:00,
2013-02-20 07:14:00,21.4,17.9,30.07,North,360,1.0,2.0,86,0.00,,,0.00,Wunderground v.1.15,2013-02-20 15:14:00,
2013-02-20 07:20:00,21.1,17.8,30.07,North,360,1.0,1.0,87,0.00,,,0.00,Wunderground v.1.15,2013-02-20 15:20:00,
2013-02-20 07:26:00,21.0,17.7,30.07,North,360,1.0,3.0,87,0.00,,,0.00,Wunderground v.1.15,2013-02-20 15:26:00,
2013-02-20 07:32:00,21.0,17.5,30.07,North,360,1.0,3.0,86,0.00,,,0.00,Wunderground v.1.15,2013-02-20 15:32:00,
2013-02-20 07:38:00,21.5,18.0,30.07,North,360,2.0,3.0,86,0.00,,,0.00,Wunderground v.1.15,2013-02-20 15:38:00,
2013-02-20 07:44:00,22.2,18.7,30.07,North,360,1.0,2.0,86,0.00,,,0.00,Wunderground v.1.15,2013-02-20 15:44:00,
2013-02-20 07:50:00,22.8,18.7,30.07,North,360,1.0,3.0,84,0.00,,,0.00,Wunderground v.1.15,2013-02-20 15:50:00,
2013-02-20 07:56:00,23.2,19.1,30.08,North,360,1.0,3.0,84,0.00,,,0.00,Wunderground v.1.15,2013-02-20 15:56:00,
2013-02-20 08:02:00,23.7,19.3,30.08,North,360,1.0,2.0,83,0.00,,,0.00,Wunderground v.1.15,2013-02-20 16:02:00,
2013-02-20 08:08:00,24.4,20.3,30.07,North,360,1.0,3.0,84,0.00,,,0.00,Wunderground v.1.15,2013-02-20 16:08:00,
2013-02-20 08:14:00,25.5,20.8,30.07,North,360,0.0,1.0,82,0.00,,,0.00,Wunderground v.1.15,2013-02-20 16:14:00,
2013-02-20 08:20:00,26.2,21.2,30.07,North,360,0.0,1.0,81,0.00,,,0.00,Wunderground v.1.15,2013-02-20 16:20:00,
2013-02-20 08:26:00,26.5,21.2,30.08,North,360,1.0,2.0,80,0.00,,,0.00,Wunderground v.1.15,2013-02-20 16:26:00,
2013-02-20 08:31:00,26.9,21.3,30.07,North,360,2.0,2.0,79,0.00,,,0.00,Wunderground v.1.15,2013-02-20 16:31:00,
2013-02-20 08:38:00,27.6,21.6,30.07,North,360,2.0,2.0,78,0.00,,,0.00,Wunderground v.1.15,2013-02-20 16:38:00,
2013-02-20 08:44:00,28.3,21.4,30.07,North,360,3.0,6.0,75,0.00,,,0.00,Wunderground v.1.15,2013-02-20 16:44:00,
2013-02-20 08:50:00,29.1,22.5,30.07,North,360,2.0,6.0,76,0.00,,,0.00,Wunderground v.1.15,2013-02-20 16:50:00,
2013-02-20 08:55:00,29.8,22.8,30.07,North,360,1.0,2.0,75,0.00,,,0.00,Wunderground v.1.15,2013-02-20 16:55:00,
2013-02-20 09:02:00,30.6,23.3,30.07,North,360,1.0,1.0,74,0.00,,,0.00,Wunderground v.1.15,2013-02-20 17:02:00,
2013-02-20 09:08:00,31.3,23.6,30.07,North,360,1.0,1.0,73,0.00,,,0.00,Wunderground v.1.15,2013-02-20 17:08:00,
2013-02-20 09:13:00,32.1,25.4,30.07,North,360,0.0,2.0,76,0.00,,,0.00,Wunderground v.1.15,2013-02-20 17:13:00,
2013-02-20 09:20:00,33.0,23.9,30.08,North,360,1.0,2.0,69,0.00,,,0.00,Wunderground v.1.15,2013-02-20 17:20:00,
2013-02-20 09:26:00,34.0,23.1,30.08,North,360,2.0,3.0,64,0.00,,,0.00,Wunderground v.1.15,2013-02-20 17:26:00,
2013-02-20 09:32:00,34.8,23.9,30.07,North,360,2.0,2.0,64,0.00,,,0.00,Wunderground v.1.15,2013-02-20 17:32:00,
2013-02-20 09:37:00,35.5,24.5,30.07,North,360,1.0,2.0,64,0.00,,,0.00,Wunderground v.1.15,2013-02-20 17:37:00,
2013-02-20 09:44:00,35.9,23.4,30.07,North,360,1.0,1.0,60,0.00,,,0.00,Wunderground v.1.15,2013-02-20 17:44:00,
2013-02-20 09:50:00,36.2,23.2,30.07,North,360,1.0,3.0,59,0.00,,,0.00,Wunderground v.1.15,2013-02-20 17:50:00,
2013-02-20 09:56:00,36.6,23.6,30.07,North,360,1.0,3.0,59,0.00,,,0.00,Wunderground v.1.15,2013-02-20 17:56:00,
2013-02-20 10:02:00,36.9,23.1,30.07,North,360,1.0,1.0,57,0.00,,,0.00,Wunderground v.1.15,2013-02-20 18:02:00,
2013-02-20 10:08:00,37.1,23.3,30.06,North,360,0.0,1.0,57,0.00,,,0.00,Wunderground v.1.15,2013-02-20 18:08:00,
2013-02-20 10:14:00,37.1,22.4,30.06,North,360,1.0,2.0,55,0.00,,,0.00,Wunderground v.1.15,2013-02-20 18:14:00,
2013-02-20 10:20:00,37.3,23.0,30.07,North,360,1.0,1.0,56,0.00,,,0.00,Wunderground v.1.15,2013-02-20 18:20:00,
2013-02-20 10:26:00,37.8,22.6,30.07,North,360,0.0,1.0,54,0.00,,,0.00,Wunderground v.1.15,2013-02-20 18:26:00,
2013-02-20 10:32:00,37.9,22.7,30.07,North,360,0.0,0.0,54,0.00,,,0.00,Wunderground v.1.15,2013-02-20 18:32:00,
2013-02-20 10:38:00,38.0,22.4,30.07,North,360,1.0,2.0,53,0.00,,,0.00,Wunderground v.1.15,2013-02-20 18:38:00,
2013-02-20 10:44:00,38.1,22.5,30.07,North,360,1.0,2.0,53,0.00,,,0.00,Wunderground v.1.15,2013-02-20 18:44:00,
2013-02-20 10:50:00,38.1,22.9,30.07,North,360,1.0,3.0,54,0.00,,,0.00,Wunderground v.1.15,2013-02-20 18:50:00,
2013-02-20 10:56:00,38.1,22.0,30.07,North,360,2.0,3.0,52,0.00,,,0.00,Wunderground v.1.15,2013-02-20 18:56:00,
2013-02-20 11:02:00,37.9,21.8,30.07,North,360,2.0,2.0,52,0.00,,,0.00,Wunderground v.1.15,2013-02-20 19:02:00,
2013-02-20 11:08:00,37.9,22.3,30.07,North,360,3.0,6.0,53,0.00,,,0.00,Wunderground v.1.15,2013-02-20 19:08:00,
2013-02-20 11:14:00,37.8,22.2,30.07,North,360,3.0,3.0,53,0.00,,,0.00,Wunderground v.1.15,2013-02-20 19:14:00,
2013-02-20 11:20:00,38.0,21.9,30.06,North,360,3.0,5.0,52,0.00,,,0.00,Wunderground v.1.15,2013-02-20 19:20:00,
2013-02-20 11:26:00,38.5,22.4,30.06,North,360,2.0,4.0,52,0.00,,,0.00,Wunderground v.1.15,2013-02-20 19:26:00,
2013-02-20 11:32:00,38.8,21.7,30.05,North,360,2.0,6.0,50,0.00,,,0.00,Wunderground v.1.15,2013-02-20 19:32:00,
2013-02-20 11:38:00,38.6,22.0,30.05,North,360,2.0,6.0,51,0.00,,,0.00,Wunderground v.1.15,2013-02-20 19:38:00,
2013-02-20 11:44:00,39.1,22.5,30.05,North,360,1.0,2.0,51,0.00,,,0.00,Wunderground v.1.15,2013-02-20 19:44:00,
2013-02-20 11:50:00,40.0,22.8,30.04,North,360,0.0,2.0,50,0.00,,,0.00,Wunderground v.1.15,2013-02-20 19:50:00,
2013-02-20 11:56:00,41.0,23.8,30.04,North,360,1.0,4.0,50,0.00,,,0.00,Wunderground v.1.15,2013-02-20 19:56:00,
2013-02-20 12:02:00,40.6,22.9,30.04,North,360,2.0,2.0,49,0.00,,,0.00,Wunderground v.1.15,2013-02-20 20:02:00,
2013-02-20 12:08:00,40.4,22.2,30.04,North,360,2.0,4.0,48,0.00,,,0.00,Wunderground v.1.15,2013-02-20 20:08:00,
2013-02-20 12:14:00,40.5,21.8,30.03,North,360,2.0,2.0,47,0.00,,,0.00,Wunderground v.1.15,2013-02-20 20:14:00,
2013-02-20 12:20:00,41.1,21.9,30.03,North,360,1.0,4.0,46,0.00,,,0.00,Wunderground v.1.15,2013-02-20 20:20:00,
2013-02-20 12:26:00,40.7,21.5,30.03,North,350,3.0,3.0,46,0.00,,,0.00,Wunderground v.1.15,2013-02-20 20:26:00,
2013-02-20 12:31:00,40.7,22.0,30.03,North,350,2.0,2.0,47,0.00,,,0.00,Wunderground v.1.15,2013-02-20 20:31:00,
2013-02-20 12:38:00,40.8,21.6,30.03,North,350,1.0,2.0,46,0.00,,,0.00,Wunderground v.1.15,2013-02-20 20:38:00,
2013-02-20 12:44:00,41.4,22.1,30.03,North,350,1.0,5.0,46,0.00,,,0.00,Wunderground v.1.15,2013-02-20 20:44:00,
2013-02-20 12:50:00,41.8,22.0,30.03,North,350,1.0,6.0,45,0.00,,,0.00,Wunderground v.1.15,2013-02-20 20:50:00,
2013-02-20 12:56:00,42.0,22.2,30.03,North,350,2.0,8.0,45,0.00,,,0.00,Wunderground v.1.15,2013-02-20 20:56:00,
2013-02-20 13:02:00,42.4,22.0,30.03,North,350,2.0,2.0,44,0.00,,,0.00,Wunderground v.1.15,2013-02-20 21:02:00,
2013-02-20 13:08:00,43.0,22.5,30.03,NNW,342,3.0,3.0,44,0.00,,,0.00,Wunderground v.1.15,2013-02-20 21:08:00,
2013-02-20 13:14:00,43.0,22.0,30.02,NNW,342,2.0,2.0,43,0.00,,,0.00,Wunderground v.1.15,2013-02-20 21:14:00,
2013-02-20 13:20:00,42.5,22.6,30.01,NNW,346,4.0,9.0,45,0.00,,,0.00,Wunderground v.1.15,2013-02-20 21:20:00,
2013-02-20 13:26:00,42.5,23.2,30.01,NW,317,5.0,8.0,46,0.00,,,0.00,Wunderground v.1.15,2013-02-20 21:26:00,
2013-02-20 13:32:00,42.2,22.9,30.01,NW,326,6.0,6.0,46,0.00,,,0.00,Wunderground v.1.15,2013-02-20 21:32:00,
2013-02-20 13:38:00,42.0,22.7,30.01,NNW,328,5.0,6.0,46,0.00,,,0.00,Wunderground v.1.15,2013-02-20 21:38:00,
2013-02-20 13:44:00,42.2,22.9,30.01,NNW,327,5.0,10.0,46,0.00,,,0.00,Wunderground v.1.15,2013-02-20 21:44:00,
2013-02-20 13:50:00,41.8,22.5,30.01,North,360,6.0,10.0,46,0.00,,,0.00,Wunderground v.1.15,2013-02-20 21:50:00,
2013-02-20 13:56:00,41.7,22.9,30.01,North,350,5.0,6.0,47,0.00,,,0.00,Wunderground v.1.15,2013-02-20 21:56:00,
2013-02-20 14:01:00,41.5,22.7,30.00,North,350,4.0,4.0,47,0.00,,,0.00,Wunderground v.1.15,2013-02-20 22:01:00,
2013-02-20 14:08:00,41.1,23.4,30.00,North,355,5.0,6.0,49,0.00,,,0.00,Wunderground v.1.15,2013-02-20 22:08:00,
2013-02-20 14:14:00,41.5,24.2,30.00,North,355,3.0,4.0,50,0.00,,,0.00,Wunderground v.1.15,2013-02-20 22:14:00,
2013-02-20 14:20:00,41.5,23.2,29.99,North,10,3.0,8.0,48,0.00,,,0.00,Wunderground v.1.15,2013-02-20 22:20:00,
2013-02-20 14:26:00,41.5,23.7,29.99,North,10,3.0,5.0,49,0.00,,,0.00,Wunderground v.1.15,2013-02-20 22:26:00,
2013-02-20 14:32:00,42.2,23.4,29.99,North,360,3.0,3.0,47,0.00,,,0.00,Wunderground v.1.15,2013-02-20 22:32:00,
2013-02-20 14:38:00,42.5,23.2,29.99,North,355,5.0,6.0,46,0.00,,,0.00,Wunderground v.1.15,2013-02-20 22:38:00,
2013-02-20 14:44:00,41.8,22.5,30.00,NNW,336,5.0,7.0,46,0.00,,,0.00,Wunderground v.1.15,2013-02-20 22:44:00,
2013-02-20 14:50:00,41.4,22.1,29.99,NNW,331,5.0,8.0,46,0.00,,,0.00,Wunderground v.1.15,2013-02-20 22:50:00,
2013-02-20 14:56:00,41.2,22.0,29.99,NNW,329,5.0,5.0,46,0.00,,,0.00,Wunderground v.1.15,2013-02-20 22:56:00,
2013-02-20 15:02:00,41.1,21.9,30.00,NW,318,6.0,12.0,46,0.00,,,0.00,Wunderground v.1.15,2013-02-20 23:02:00,
2013-02-20 15:07:00,40.8,21.6,29.99,NNW,328,6.0,12.0,46,0.00,,,0.00,Wunderground v.1.15,2013-02-20 23:07:00,
2013-02-20 15:14:00,40.5,21.8,30.00,NNW,329,6.0,6.0,47,0.00,,,0.00,Wunderground v.1.15,2013-02-20 23:14:00,
2013-02-20 15:20:00,40.4,22.7,30.00,NW,325,7.0,10.0,49,0.00,,,0.00,Wunderground v.1.15,2013-02-20 23:20:00,
2013-02-20 15:28:00,40.3,23.1,30.00,NW,320,7.0,7.0,50,0.00,,,0.00,Wunderground v.1.15,2013-02-20 23:28:00,
2013-02-20 15:34:00,40.0,22.4,29.99,NW,319,7.0,11.0,49,0.00,,,0.00,Wunderground v.1.15,2013-02-20 23:34:00,
2013-02-20 15:40:00,39.3,22.2,29.99,NNW,336,7.0,11.0,50,0.00,,,0.00,Wunderground v.1.15,2013-02-20 23:40:00,
2013-02-20 15:46:00,38.9,22.8,30.00,NNW,327,6.0,7.0,52,0.00,,,0.00,Wunderground v.1.15,2013-02-20 23:46:00,
2013-02-20 15:51:00,38.8,23.1,30.00,NW,317,5.0,6.0,53,0.00,,,0.00,Wunderground v.1.15,2013-02-20 23:51:00,
2013-02-20 15:58:00,38.7,23.5,30.00,NNW,333,6.0,7.0,54,0.00,,,0.00,Wunderground v.1.15,2013-02-20 23:58:00,
2013-02-20 16:04:00,38.4,23.2,30.00,North,350,6.0,7.0,54,0.00,,,0.00,Wunderground v.1.15,2013-02-21 00:04:00,
2013-02-20 16:10:00,38.2,23.0,30.00,NNW,344,6.0,9.0,54,0.00,,,0.00,Wunderground v.1.15,2013-02-21 00:10:00,
2013-02-20 16:16:00,38.0,23.3,30.00,NW,324,5.0,11.0,55,0.00,,,0.00,Wunderground v.1.15,2013-02-21 00:16:00,
2013-02-20 16:22:00,37.8,23.1,30.00,NW,307,6.0,12.0,55,0.00,,,0.00,Wunderground v.1.15,2013-02-21 00:22:00,
2013-02-20 16:28:00,37.7,23.0,30.00,NNW,333,6.0,12.0,55,0.00,,,0.00,Wunderground v.1.15,2013-02-21 00:28:00,
2013-02-20 16:34:00,37.6,22.9,30.00,NW,321,4.0,5.0,55,0.00,,,0.00,Wunderground v.1.15,2013-02-21 00:34:00,
2013-02-20 16:40:00,37.5,22.8,29.99,NNW,346,6.0,11.0,55,0.00,,,0.00,Wunderground v.1.15,2013-02-21 00:40:00,
2013-02-20 16:46:00,37.5,22.3,30.00,NNW,340,7.0,11.0,54,0.00,,,0.00,Wunderground v.1.15,2013-02-21 00:46:00,
2013-02-20 16:52:00,37.6,22.4,30.00,NW,315,7.0,7.0,54,0.00,,,0.00,Wunderground v.1.15,2013-02-21 00:52:00,
2013-02-20 16:58:00,37.5,22.3,30.00,NW,315,7.0,8.0,54,0.00,,,0.00,Wunderground v.1.15,2013-02-21 00:58:00,
2013-02-20 17:04:00,37.3,22.6,30.00,NW,315,6.0,9.0,55,0.00,,,0.00,Wunderground v.1.15,2013-02-21 01:04:00,
2013-02-20 17:10:00,37.0,23.2,29.99,NW,306,7.0,9.0,57,0.00,,,0.00,Wunderground v.1.15,2013-02-21 01:10:00,
2013-02-20 17:16:00,36.6,23.6,30.00,NW,306,7.0,8.0,59,0.00,,,0.00,Wunderground v.1.15,2013-02-21 01:16:00,
2013-02-20 17:22:00,36.4,23.4,30.00,NW,324,7.0,10.0,59,0.00,,,0.00,Wunderground v.1.15,2013-02-21 01:22:00,
2013-02-20 17:28:00,36.2,23.6,30.00,WNW,289,6.0,10.0,60,0.00,,,0.00,Wunderground v.1.15,2013-02-21 01:28:00,
2013-02-20 17:34:00,36.2,23.6,30.01,WNW,300,6.0,7.0,60,0.00,,,0.00,Wunderground v.1.15,2013-02-21 01:34:00,
2013-02-20 17:40:00,36.2,23.6,30.01,NW,308,5.0,7.0,60,0.00,,,0.00,Wunderground v.1.15,2013-02-21 01:40:00,
2013-02-20 17:46:00,36.0,23.8,30.01,NW,317,7.0,10.0,61,0.00,,,0.00,Wunderground v.1.15,2013-02-21 01:46:00,
2013-02-20 17:52:00,35.7,24.3,30.01,NW,312,6.0,10.0,63,0.00,,,0.00,Wunderground v.1.15,2013-02-21 01:52:00,
2013-02-20 17:58:00,35.5,24.5,30.02,NNW,331,5.0,10.0,64,0.00,,,0.00,Wunderground v.1.15,2013-02-21 01:58:00,
2013-02-20 18:03:00,35.4,24.4,30.02,NNW,331,1.0,2.0,64,0.00,,,0.00,Wunderground v.1.15,2013-02-21 02:03:00,
2013-02-20 18:10:00,35.3,24.7,30.02,NNW,331,1.0,2.0,65,0.00,,,0.00,Wunderground v.1.15,2013-02-21 02:10:00,
2013-02-20 18:16:00,35.2,24.6,30.03,NNW,331,0.0,0.0,65,0.00,,,0.00,Wunderground v.1.15,2013-02-21 02:16:00,
2013-02-20 18:22:00,35.1,24.5,30.02,NNW,331,1.0,1.0,65,0.00,,,0.00,Wunderground v.1.15,2013-02-21 02:22:00,
2013-02-20 18:27:00,35.0,24.8,30.02,NNW,331,1.0,1.0,66,0.00,,,0.00,Wunderground v.1.15,2013-02-21 02:27:00,
2013-02-20 18:34:00,35.0,25.1,30.02,NNW,331,0.0,0.0,67,0.00,,,0.00,Wunderground v.1.15,2013-02-21 02:34:00,
2013-02-20 18:40:00,34.9,25.0,30.03,NNW,331,0.0,0.0,67,0.00,,,0.00,Wunderground v.1.15,2013-02-21 02:40:00,
2013-02-20 18:45:00,34.8,25.0,30.03,NNW,331,0.0,0.0,67,0.00,,,0.00,Wunderground v.1.15,2013-02-21 02:45:00,
2013-02-20 18:52:00,34.7,24.9,30.03,NNW,331,0.0,0.0,67,0.00,,,0.00,Wunderground v.1.15,2013-02-21 02:52:00,
2013-02-20 18:58:00,34.5,25.0,30.03,NNW,331,0.0,0.0,68,0.00,,,0.00,Wunderground v.1.15,2013-02-21 02:58:00,
2013-02-20 19:04:00,34.4,24.9,30.03,NNW,331,0.0,0.0,68,0.00,,,0.00,Wunderground v.1.15,2013-02-21 03:04:00,
2013-02-20 19:09:00,34.2,25.1,30.03,NNW,331,0.0,1.0,69,0.00,,,0.00,Wunderground v.1.15,2013-02-21 03:09:00,
2013-02-20 19:16:00,34.1,25.0,30.04,NNW,331,0.0,0.0,69,0.00,,,0.00,Wunderground v.1.15,2013-02-21 03:16:00,
2013-02-20 19:22:00,34.0,25.2,30.04,NNW,331,0.0,0.0,70,0.00,,,0.00,Wunderground v.1.15,2013-02-21 03:22:00,
2013-02-20 19:28:00,33.9,25.1,30.04,NNW,331,0.0,0.0,70,0.00,,,0.00,Wunderground v.1.15,2013-02-21 03:28:00,
2013-02-20 19:34:00,33.9,25.5,30.04,NNW,331,0.0,0.0,71,0.00,,,0.00,Wunderground v.1.15,2013-02-21 03:34:00,
2013-02-20 19:40:00,33.8,25.4,30.04,NNW,331,0.0,1.0,71,0.00,,,0.00,Wunderground v.1.15,2013-02-21 03:40:00,
2013-02-20 19:46:00,33.9,25.5,30.04,NNW,331,0.0,1.0,71,0.00,,,0.00,Wunderground v.1.15,2013-02-21 03:46:00,
2013-02-20 19:51:00,33.9,25.5,30.04,NNW,331,1.0,2.0,71,0.00,,,0.00,Wunderground v.1.15,2013-02-21 03:51:00,
2013-02-20 19:58:00,33.8,25.4,30.04,NNW,331,1.0,2.0,71,0.00,,,0.00,Wunderground v.1.15,2013-02-21 03:58:00,
2013-02-20 20:04:00,33.8,25.4,30.04,NNW,331,1.0,2.0,71,0.00,,,0.00,Wunderground v.1.15,2013-02-21 04:04:00,
2013-02-20 20:10:00,33.7,25.6,30.04,NNW,331,1.0,2.0,72,0.00,,,0.00,Wunderground v.1.15,2013-02-21 04:10:00,
2013-02-20 20:16:00,33.6,25.5,30.04,NNW,331,0.0,1.0,72,0.00,,,0.00,Wunderground v.1.15,2013-02-21 04:16:00,
2013-02-20 20:22:00,33.5,25.4,30.05,NNW,331,0.0,0.0,72,0.00,,,0.00,Wunderground v.1.15,2013-02-21 04:22:00,
2013-02-20 20:28:00,33.4,25.3,30.05,NNW,331,0.0,0.0,72,0.00,,,0.00,Wunderground v.1.15,2013-02-21 04:28:00,
2013-02-20 20:34:00,33.3,25.6,30.05,NNW,331,0.0,0.0,73,0.00,,,0.00,Wunderground v.1.15,2013-02-21 04:34:00,
2013-02-20 20:40:00,33.0,25.3,30.05,NNW,331,0.0,0.0,73,0.00,,,0.00,Wunderground v.1.15,2013-02-21 04:40:00,
2013-02-20 20:46:00,32.7,25.3,30.05,NNW,331,0.0,0.0,74,0.00,,,0.00,Wunderground v.1.15,2013-02-21 04:46:00,
2013-02-20 20:52:00,32.5,25.1,30.05,NNW,331,0.0,0.0,74,0.00,,,0.00,Wunderground v.1.15,2013-02-21 04:52:00,
2013-02-20 20:58:00,32.3,25.3,30.05,NNW,331,0.0,1.0,75,0.00,,,0.00,Wunderground v.1.15,2013-02-21 04:58:00,
2013-02-20 21:02:00,32.1,25.1,30.06,NNW,331,0.0,0.0,75,0.00,,,0.00,Wunderground v.1.15,2013-02-21 05:02:00,
2013-02-20 21:06:00,32.1,25.4,30.05,NNW,331,0.0,0.0,76,0.00,,,0.00,Wunderground v.1.15,2013-02-21 05:06:00,
2013-02-20 21:12:00,32.1,25.7,30.06,NNW,331,0.0,0.0,77,0.00,,,0.00,Wunderground v.1.15,2013-02-21 05:12:00,
2013-02-20 21:18:00,32.1,25.7,30.06,NNW,331,0.0,0.0,77,0.00,,,0.00,Wunderground v.1.15,2013-02-21 05:18:00,
2013-02-20 21:24:00,32.1,25.7,30.06,NNW,331,0.0,0.0,77,0.00,,,0.00,Wunderground v.1.15,2013-02-21 05:24:00,
2013-02-20 21:30:00,31.9,25.5,30.06,NNW,331,0.0,0.0,77,0.00,,,0.00,Wunderground v.1.15,2013-02-21 05:30:00,
2013-02-20 21:36:00,31.9,25.8,30.06,NNW,331,0.0,0.0,78,0.00,,,0.00,Wunderground v.1.15,2013-02-21 05:36:00,
2013-02-20 21:42:00,31.7,25.6,30.06,NNW,331,0.0,1.0,78,0.00,,,0.00,Wunderground v.1.15,2013-02-21 05:42:00,
2013-02-20 21:48:00,31.6,25.8,30.06,NNW,331,0.0,1.0,79,0.00,,,0.00,Wunderground v.1.15,2013-02-21 05:48:00,
2013-02-20 21:54:00,31.4,25.9,30.06,NNW,331,0.0,1.0,80,0.00,,,0.00,Wunderground v.1.15,2013-02-21 05:54:00,
2013-02-20 22:02:00,31.2,25.7,30.06,NNW,339,1.0,2.0,80,0.00,,,0.00,Wunderground v.1.15,2013-02-21 06:02:00,
2013-02-20 22:08:00,30.9,25.8,30.06,NE,45,1.0,2.0,81,0.00,,,0.00,Wunderground v.1.15,2013-02-21 06:08:00,
2013-02-20 22:14:00,30.7,25.6,30.06,NE,56,1.0,3.0,81,0.00,,,0.00,Wunderground v.1.15,2013-02-21 06:14:00,
2013-02-20 22:20:00,30.5,25.4,30.07,NE,56,1.0,3.0,81,0.00,,,0.00,Wunderground v.1.15,2013-02-21 06:20:00,
2013-02-20 22:26:00,30.3,25.2,30.07,NE,56,0.0,0.0,81,0.00,,,0.00,Wunderground v.1.15,2013-02-21 06:26:00,
2013-02-20 22:32:00,30.0,25.2,30.07,NE,56,0.0,0.0,82,0.00,,,0.00,Wunderground v.1.15,2013-02-21 06:32:00,
2013-02-20 22:38:00,29.7,25.2,30.07,NE,56,0.0,0.0,83,0.00,,,0.00,Wunderground v.1.15,2013-02-21 06:38:00,
2013-02-20 22:44:00,29.5,25.0,30.07,NE,56,0.0,0.0,83,0.00,,,0.00,Wunderground v.1.15,2013-02-21 06:44:00,
2013-02-20 22:50:00,29.4,25.4,30.07,ENE,74,1.0,3.0,85,0.00,,,0.00,Wunderground v.1.15,2013-02-21 06:50:00,
2013-02-20 22:56:00,29.7,25.7,30.07,ENE,75,2.0,3.0,85,0.00,,,0.00,Wunderground v.1.15,2013-02-21 06:56:00,
2013-02-20 23:02:00,30.0,25.8,30.07,ENE,76,1.0,2.0,84,0.00,,,0.00,Wunderground v.1.15,2013-02-21 07:02:00,
2013-02-20 23:07:00,30.2,25.7,30.06,East,85,2.0,7.0,83,0.00,,,0.00,Wunderground v.1.15,2013-02-21 07:07:00,
2013-02-20 23:14:00,29.8,25.0,30.06,East,85,1.0,1.0,82,0.00,,,0.00,Wunderground v.1.15,2013-02-21 07:14:00,
2013-02-20 23:20:00,29.5,25.0,30.06,East,95,1.0,3.0,83,0.00,,,0.00,Wunderground v.1.15,2013-02-21 07:20:00,
2013-02-20 23:26:00,29.3,24.8,30.06,East,95,1.0,1.0,83,0.00,,,0.00,Wunderground v.1.15,2013-02-21 07:26:00,
2013-02-20 23:32:00,29.2,25.0,30.06,East,95,0.0,2.0,84,0.00,,,0.00,Wunderground v.1.15,2013-02-21 07:32:00,
2013-02-20 23:38:00,29.2,25.0,30.06,East,95,0.0,2.0,84,0.00,,,0.00,Wunderground v.1.15,2013-02-21 07:38:00,
2013-02-20 23:44:00,29.2,24.7,30.06,East,95,1.0,1.0,83,0.00,,,0.00,Wunderground v.1.15,2013-02-21 07:44:00,
2013-02-20 23:49:00,29.0,24.5,30.06,East,95,1.0,1.0,83,0.00,,,0.00,Wunderground v.1.15,2013-02-21 07:49:00,
2013-02-20 23:56:00,28.8,24.3,30.06,ESE,109,1.0,5.0,83,0.00,,,0.00,Wunderground v.1.15,2013-02-21 07:56:00,